الصفحة الرئيسية
METAR-TAF:

METAR-TAF

مطار :

مطار تورونتو بيرسون الدولي

تورونتو, أونتاريو, كندا

دائرة عرض: 43-40N, خط طول: 079-38W, ارتفاع: 173 متر

مراقبة الطقس الحالي

تاريخ ووقت الإصدار 1ساعة و 8 دقيقة قبل الساعة 11:00UTC
ريح 4 عقدة من الشمال/الشمال الغربي
درجة الحرارة 15°درجة مئوية
الرطوبة 63%
ضغط 1022 hPa
الرؤية: 24.1 كم
غيوم قليلة على ارتفاع 26000 قدم

METAR: CYYZ 241100Z 34004KT 15SM FEW260 15/08 A3018 RMK CI1 SLP220

زمن: 08:08 (12:08 UTC)

توقعات

تاريخ ووقت الإصدار 29 دقيقة قبل الساعة 11:39UTC
التوقعات صالحة من24 الساعة 12 UTC إلى 25 الساعة 18 UTC
ريح 3 عقدةمن اتجاهات متغيرة
الرؤية: 10 كم
غيوم قليلة على ارتفاع 28000 قدم
أصبح
من 24 الساعة 15 UTC إلى 24 الساعة 17 UTC
ريح 7 عقدة من الجنوب/الجنوب الشرقي
أصبح
من 24 الساعة 22 UTC إلى 24 الساعة 24 UTC
ريح 10 عقدة من الغرب
من 25 الساعة 1400 UTC
ريح 15 عقدة من الغرب
الرؤية: 10 كم
غيوم متفرقة على ارتفاع 7000 قدم
غيوم مفككة على ارتفاع 28000 قدم

TAF: CYYZ 241139Z 2412/2518 VRB03KT P6SM FEW280 BECMG 2415/2417 16007KT BECMG 2422/2424 26010KT FM251400 27015KT P6SM SCT070 BKN280 RMK NXT FCST BY 241500Z

أرصاد الطقس والتوقعات من أكثر من 4000 مطار (تقارير الطقس للمطار METAR والتنبؤ بالطقس بالمطارTAF).

المحطات المتاحة هي النقط الصفراء والحمراء على الخريطة.

حرك المؤشر فوق النقطة لمعرفة اسم المحطة.

ثم انقر لمعرفة أرصاد وتوقعات الطقس.

لتغيير الخارطة: اضغط على الأزرار الخضراء مع رمز الصليب الأسود للتكبير. على الزر الأخضر مع شرطة للتصغير، أو على الأسهم الخضراء للخرائط المجاورة.


METAR-TAF: